createdAt,value
2023-02-18T00:01:43.426Z,99530.66
2023-02-18T00:06:36.769Z,99516.50
2023-02-18T00:11:30.697Z,99497.94
2023-02-18T00:16:23.206Z,99483.16
2023-02-18T00:21:15.328Z,99490.69
2023-02-18T00:26:13.894Z,99459.84
2023-02-18T00:31:19.841Z,99461.63
2023-02-18T00:36:14.220Z,99457.00
2023-02-18T00:41:06.846Z,99438.47
2023-02-18T00:45:58.685Z,99439.97
2023-02-18T00:50:50.418Z,99438.91
2023-02-18T00:55:48.069Z,99454.16
2023-02-18T01:00:39.779Z,99464.16
2023-02-18T01:05:31.658Z,99452.72
2023-02-18T01:10:23.303Z,99460.25
2023-02-18T01:15:16.968Z,99444.19
2023-02-18T01:20:09.878Z,99450.91
2023-02-18T01:25:01.622Z,99435.31
2023-02-18T01:29:53.727Z,99451.34
2023-02-18T01:34:46.674Z,99464.91
2023-02-18T01:39:38.428Z,99454.28
2023-02-18T01:44:30.398Z,99427.63
2023-02-18T01:49:35.724Z,99414.88
2023-02-18T01:54:28.917Z,99427.03
2023-02-18T01:59:33.740Z,99428.28
2023-02-18T02:04:26.372Z,99413.91
2023-02-18T02:09:20.093Z,99423.09
2023-02-18T02:14:11.955Z,99413.28
2023-02-18T02:19:19.724Z,99420.38
2023-02-18T02:24:33.204Z,99422.88
2023-02-18T02:30:07.746Z,99401.41
2023-02-18T02:35:05.368Z,99407.63
2023-02-18T02:40:06.924Z,99400.56
2023-02-18T02:45:39.852Z,99398.09
2023-02-18T02:50:37.369Z,99371.41
2023-02-18T02:55:29.160Z,99376.84
2023-02-18T03:00:49.995Z,99376.63
2023-02-18T03:06:11.025Z,99359.28
2023-02-18T03:11:08.355Z,99358.69
2023-02-18T03:16:33.003Z,99354.56
2023-02-18T03:21:44.819Z,99346.03
2023-02-18T03:26:42.846Z,99337.31
2023-02-18T03:31:38.554Z,99350.84
2023-02-18T03:36:33.075Z,99339.19
2023-02-18T03:41:24.983Z,99335.41
2023-02-18T03:46:17.028Z,99330.44
2023-02-18T03:51:08.921Z,99331.28
2023-02-18T03:56:00.596Z,99328.81
2023-02-18T04:00:52.571Z,99338.34
2023-02-18T04:05:44.338Z,99333.78
2023-02-18T04:10:36.069Z,99338.97
2023-02-18T04:15:28.098Z,99338.13
2023-02-18T04:20:19.998Z,99328.56
2023-02-18T04:25:11.648Z,99330.22
2023-02-18T04:30:05.649Z,99332.69
2023-02-18T04:34:57.431Z,99321.84
2023-02-18T04:39:49.114Z,99315.59
2023-02-18T04:44:41.012Z,99298.75
2023-02-18T04:49:33.382Z,99295.88
2023-02-18T04:54:25.330Z,99290.69
2023-02-18T04:59:17.574Z,99302.81
2023-02-18T05:04:09.446Z,99313.66
2023-02-18T05:09:01.169Z,99321.34
2023-02-18T05:13:52.899Z,99336.94
2023-02-18T05:18:44.530Z,99335.63
2023-02-18T05:23:36.263Z,99344.75
2023-02-18T05:28:28.206Z,99358.91
2023-02-18T05:33:19.938Z,99364.69
2023-02-18T05:38:11.675Z,99373.91
2023-02-18T05:43:03.531Z,99370.75
2023-02-18T05:47:55.323Z,99368.25
2023-02-18T05:52:47.357Z,99380.16
2023-02-18T05:57:39.037Z,99381.41
2023-02-18T06:02:30.774Z,99364.56
2023-02-18T06:07:22.545Z,99362.06
2023-02-18T06:12:14.238Z,99373.78
2023-02-18T06:17:05.935Z,99374.38
2023-02-18T06:21:57.698Z,99367.28
2023-02-18T06:26:49.445Z,99346.03
2023-02-18T06:31:41.186Z,99363.59
2023-02-18T06:36:32.983Z,99365.91
2023-02-18T06:41:25.413Z,99379.47
2023-02-18T06:46:17.336Z,99381.59
2023-02-18T06:51:09.167Z,99377.66
2023-02-18T06:56:02.013Z,99381.81
2023-02-18T07:00:53.755Z,99392.66
2023-02-18T07:05:45.440Z,99403.06
2023-02-18T07:10:37.296Z,99416.16
2023-02-18T07:15:29.190Z,99412.63
2023-02-18T07:20:21.966Z,99432.44
2023-02-18T07:25:13.685Z,99429.13
2023-02-18T07:30:06.538Z,99420.59
2023-02-18T07:34:58.258Z,99430.84
2023-02-18T07:39:49.902Z,99443.56
2023-02-18T07:44:42.158Z,99448.38
2023-02-18T07:49:34.774Z,99441.53
2023-02-18T07:54:26.600Z,99431.69
2023-02-18T07:59:18.343Z,99437.97
2023-02-18T08:04:10.424Z,99445.06
2023-02-18T08:09:02.243Z,99443.16
2023-02-18T08:13:54.068Z,99449.00
2023-02-18T08:18:48.004Z,99430.84
2023-02-18T08:23:40.204Z,99430.84
2023-02-18T08:28:31.940Z,99447.69
2023-02-18T08:33:24.123Z,99437.47
2023-02-18T08:38:15.918Z,99440.34
2023-02-18T08:43:07.687Z,99445.53
2023-02-18T08:48:16.350Z,99446.75
2023-02-18T08:53:10.775Z,99453.59
2023-02-18T08:58:05.122Z,99473.56
2023-02-18T09:02:57.395Z,99457.22
2023-02-18T09:07:49.185Z,99456.78
2023-02-18T09:12:40.894Z,99452.13
2023-02-18T09:17:33.434Z,99428.66
2023-02-18T09:22:25.404Z,99431.09
2023-02-18T09:27:17.040Z,99427.69
2023-02-18T09:32:09.458Z,99422.38
2023-02-18T09:37:01.285Z,99404.31
2023-02-18T09:42:05.983Z,99427.34
2023-02-18T09:47:03.622Z,99436.91
2023-02-18T09:51:57.486Z,99437.13
2023-02-18T09:56:50.818Z,99446.78
2023-02-18T10:01:44.673Z,99434.88
2023-02-18T10:06:36.761Z,99438.34
2023-02-18T10:11:35.452Z,99447.81
2023-02-18T10:16:27.664Z,99442.41
2023-02-18T10:21:30.629Z,99440.25
2023-02-18T10:26:22.358Z,99459.63
2023-02-18T10:31:32.664Z,99459.78
2023-02-18T10:36:26.149Z,99443.59
2023-02-18T10:41:35.062Z,99436.94
2023-02-18T10:46:48.258Z,99449.66
2023-02-18T10:51:47.877Z,99439.25
2023-02-18T10:56:48.683Z,99442.41
2023-02-18T11:01:42.662Z,99442.75
2023-02-18T11:06:45.255Z,99442.16
2023-02-18T11:11:40.553Z,99436.81
2023-02-18T11:16:53.729Z,99441.13
2023-02-18T11:21:45.408Z,99437.94
2023-02-18T11:26:40.023Z,99437.47
2023-02-18T11:31:42.122Z,99445.97
2023-02-18T11:36:36.393Z,99447.75
2023-02-18T11:41:38.216Z,99441.13
2023-02-18T11:46:30.102Z,99473.00
2023-02-18T11:51:36.726Z,99471.94
2023-02-18T11:56:34.869Z,99463.53
2023-02-18T12:01:46.808Z,99464.78
2023-02-18T12:06:53.777Z,99464.16
2023-02-18T12:11:50.311Z,99489.53
2023-02-18T12:16:42.021Z,99491.75
2023-02-18T12:21:45.118Z,99502.22
2023-02-18T12:26:49.156Z,99506.75
2023-02-18T12:31:59.870Z,99502.16
2023-02-18T12:37:15.991Z,99493.91
2023-02-18T12:42:07.664Z,99483.34
2023-02-18T12:47:22.447Z,99497.66
2023-02-18T12:52:40.254Z,99482.59
2023-02-18T12:57:47.781Z,99488.78
2023-02-18T13:03:17.229Z,99489.28
2023-02-18T13:08:17.793Z,99490.00
2023-02-18T13:13:12.640Z,99490.94
2023-02-18T13:18:11.671Z,99477.16
2023-02-18T13:23:04.574Z,99474.34
2023-02-18T13:27:56.475Z,99468.31
2023-02-18T13:33:19.641Z,99457.06
2023-02-18T13:38:34.878Z,99460.88
2023-02-18T13:43:36.791Z,99460.13
2023-02-18T13:48:29.924Z,99453.34
2023-02-18T13:53:24.766Z,99454.09
2023-02-18T13:58:20.933Z,99446.56
2023-02-18T14:03:31.218Z,99442.09
2023-02-18T14:08:39.261Z,99430.84
2023-02-18T14:14:13.612Z,99423.66
2023-02-18T14:19:29.309Z,99421.41
2023-02-18T14:24:47.559Z,99420.34
2023-02-18T14:29:39.677Z,99421.50
2023-02-18T14:34:51.024Z,99421.34
2023-02-18T14:39:48.523Z,99421.94
2023-02-18T14:44:58.782Z,99425.00
2023-02-18T14:49:59.881Z,99434.16
2023-02-18T14:54:51.767Z,99443.06
2023-02-18T14:59:44.978Z,99460.13
2023-02-18T15:04:37.420Z,99444.63
2023-02-18T15:09:29.231Z,99442.19
2023-02-18T15:14:27.625Z,99442.31
2023-02-18T15:19:22.930Z,99433.31
2023-02-18T15:24:32.179Z,99436.28
2023-02-18T15:29:29.282Z,99452.28
2023-02-18T15:34:23.927Z,99456.53
2023-02-18T15:39:15.834Z,99451.00
2023-02-18T15:44:08.500Z,99443.31
2023-02-18T15:49:01.388Z,99437.53
2023-02-18T15:53:58.223Z,99426.50
2023-02-18T15:58:49.906Z,99424.97
2023-02-18T16:03:41.697Z,99446.66
2023-02-18T16:08:33.431Z,99438.25
2023-02-18T16:13:26.896Z,99451.28
2023-02-18T16:18:25.439Z,99463.56
2023-02-18T16:23:17.102Z,99450.44
2023-02-18T16:28:28.049Z,99451.38
2023-02-18T16:33:19.775Z,99459.66
2023-02-18T16:38:17.868Z,99443.81
2023-02-18T16:43:17.501Z,99432.00
2023-02-18T16:48:24.554Z,99409.28
2023-02-18T16:53:16.587Z,99396.63
2023-02-18T16:58:08.480Z,99388.00
2023-02-18T17:03:01.121Z,99383.53
2023-02-18T17:07:52.904Z,99390.44
2023-02-18T17:12:44.674Z,99412.88
2023-02-18T17:17:36.526Z,99454.47
2023-02-18T17:22:28.334Z,99464.16
2023-02-18T17:27:20.071Z,99460.84
2023-02-18T17:32:13.371Z,99447.72
2023-02-18T17:37:05.178Z,99464.25
2023-02-18T17:41:57.106Z,99475.13
2023-02-18T17:46:52.566Z,99466.38
2023-02-18T17:51:44.938Z,99492.34
2023-02-18T17:56:36.792Z,99487.00
2023-02-18T18:01:28.507Z,99481.22
2023-02-18T18:06:21.190Z,99487.56
2023-02-18T18:11:19.302Z,99487.63
2023-02-18T18:16:13.368Z,99491.88
2023-02-18T18:21:05.560Z,99487.16
2023-02-18T18:25:59.147Z,99483.44
2023-02-18T18:30:53.029Z,99495.00
2023-02-18T18:35:47.635Z,99495.66
2023-02-18T18:40:40.137Z,99501.56
2023-02-18T18:45:39.531Z,99512.88
2023-02-18T18:50:31.270Z,99508.13
2023-02-18T18:55:32.832Z,99531.09
2023-02-18T19:00:33.021Z,99539.88
2023-02-18T19:05:35.451Z,99545.53
2023-02-18T19:10:30.317Z,99546.56
2023-02-18T19:15:23.424Z,99549.50
2023-02-18T19:20:17.967Z,99550.78
2023-02-18T19:25:10.018Z,99561.03
2023-02-18T19:30:01.772Z,99562.31
2023-02-18T19:34:53.614Z,99561.94
2023-02-18T19:39:45.313Z,99575.94
2023-02-18T19:44:36.996Z,99579.72
2023-02-18T19:49:28.674Z,99570.97
2023-02-18T19:54:20.348Z,99570.38
2023-02-18T19:59:12.208Z,99572.69
2023-02-18T20:04:03.937Z,99578.09
2023-02-18T20:08:56.074Z,99575.41
2023-02-18T20:13:48.567Z,99576.91
2023-02-18T20:18:40.458Z,99580.66
2023-02-18T20:23:32.186Z,99595.91
2023-02-18T20:28:23.992Z,99594.22
2023-02-18T20:33:15.812Z,99590.69
2023-02-18T20:38:07.566Z,99588.00
2023-02-18T20:42:59.253Z,99598.00
2023-02-18T20:47:51.113Z,99595.28
2023-02-18T20:52:42.879Z,99605.09
2023-02-18T20:57:34.600Z,99599.88
2023-02-18T21:02:26.303Z,99602.00
2023-02-18T21:07:18.095Z,99604.94
2023-02-18T21:12:09.907Z,99599.94
2023-02-18T21:17:07.861Z,99605.59
2023-02-18T21:22:00.650Z,99599.16
2023-02-18T21:26:53.889Z,99612.78
2023-02-18T21:31:45.743Z,99614.66
2023-02-18T21:36:37.651Z,99624.66
2023-02-18T21:41:30.564Z,99635.75
2023-02-18T21:46:28.165Z,99621.41
2023-02-18T21:51:40.264Z,99637.50
2023-02-18T21:56:32.104Z,99645.25
2023-02-18T22:01:23.878Z,99666.31
2023-02-18T22:06:15.579Z,99664.03
2023-02-18T22:11:07.751Z,99661.53
2023-02-18T22:15:59.587Z,99664.44
2023-02-18T22:20:51.309Z,99656.53
2023-02-18T22:25:43.025Z,99666.75
2023-02-18T22:30:34.813Z,99660.72
2023-02-18T22:35:26.613Z,99664.69
2023-02-18T22:40:18.649Z,99670.75
2023-02-18T22:45:11.811Z,99670.75
2023-02-18T22:50:05.363Z,99677.03
2023-02-18T22:54:58.219Z,99670.63
2023-02-18T22:59:50.168Z,99667.09
2023-02-18T23:04:42.596Z,99670.06
2023-02-18T23:09:34.372Z,99676.72
2023-02-18T23:14:28.431Z,99680.91
2023-02-18T23:19:20.260Z,99674.88
2023-02-18T23:24:11.997Z,99670.91
2023-02-18T23:29:06.064Z,99706.56
2023-02-18T23:34:00.814Z,99712.00
2023-02-18T23:39:00.927Z,99717.44
2023-02-18T23:43:53.147Z,99720.13
2023-02-18T23:48:45.003Z,99722.44
2023-02-18T23:53:38.026Z,99721.19
2023-02-18T23:58:31.116Z,99724.13
